New Yoshino — JG5527 — position and weather

sailwx.info

Track history (hours):
 
Tides and Currents Weather Stations Pressure Air Temp Water Temp Dewpoint Dewpoint Depression Visibility Wind Speed Wind Dir Waves Ship Positions

New Yoshino

Last reported at 2014-Oct-29 19:27 UTC. Time now 2014-Oct-30 18:20 UTC.
Position N 33°54' E 130°19'.

Length 102 m; draft 4.5 m.

Type: Tanker. MMSI: 431300724.

Date/timePositionNaut miles runAvg speedWind from/ knotsBaromVisibWave heightAir tempDewpointWater temp
2014-Oct-29 19:27N 33°54' E 130°19'1314.2
2014-Oct-29 18:33N 33°47' E 130°06'1414.4
2014-Oct-29 17:33N 33°39' E 129°51'3 0.1
2014-Oct-28 12:26N 33°41' E 129°54'1112.8
2014-Oct-28 11:33N 33°47' E 130°06'  
2014-Oct-20 14:23N 35°06' E 139°44'1112.7
2014-Oct-20 13:32N 35°16' E 139°46'1010.2
2014-Oct-20 12:34N 35°26' E 139°46'1211.2
2014-Oct-20 11:30N 35°29' E 140°00'0 0.1
2014-Oct-20 05:13N 35°29' E 140°01'  
Track history (hours):
 
Tides and Currents Weather Stations Pressure Air Temp Water Temp Dewpoint Dewpoint Depression Visibility Wind Speed Wind Dir Waves Ship Positions

New Yoshino

Last reported at 2014-Oct-29 19:27 UTC. Time now 2014-Oct-30 18:20 UTC.
Position N 33°54' E 130°19'.

Length 102 m; draft 4.5 m.

Type: Tanker. MMSI: 431300724.

Date/timePositionNaut miles runAvg speedWind from/ knotsBaromVisibWave heightAir tempDewpointWater temp
2014-Oct-29 19:27N 33°54' E 130°19'1314.2
2014-Oct-29 18:33N 33°47' E 130°06'1414.4
2014-Oct-29 17:33N 33°39' E 129°51'3 0.1
2014-Oct-28 12:26N 33°41' E 129°54'1112.8
2014-Oct-28 11:33N 33°47' E 130°06'  
2014-Oct-20 14:23N 35°06' E 139°44'1112.7
2014-Oct-20 13:32N 35°16' E 139°46'1010.2
2014-Oct-20 12:34N 35°26' E 139°46'1211.2
2014-Oct-20 11:30N 35°29' E 140°00'0 0.1
2014-Oct-20 05:13N 35°29' E 140°01'  

Dump ship's entire track history